Time;durP1;ratioP1;P1;durP2;ratioP2;P2;SDS_P1;SDS_P2;PMS_P1;PMS_P2;Temp;Humidity;BMP_temperature;BMP_pressure;BME280_temperature;BME280_humidity;BME280_pressure;Samples;Min_cycle;Max_cycle;Signal;HPM_P1;HPM_P2
2021/07/13 00:02:06;;;;;;;9.57;8.50;;;21.50;99.90;;;;;;6248632;23;20070;-79
2021/07/13 00:04:34;;;;;;;13.27;8.80;;;21.50;99.90;;;;;;6247732;23;20074;-78
2021/07/13 00:07:01;;;;;;;13.15;8.65;;;21.40;99.90;;;;;;6245219;22;20095;-78
2021/07/13 00:09:28;;;;;;;10.60;8.73;;;21.40;99.90;;;;;;6245671;23;20056;-77
2021/07/13 00:11:56;;;;;;;12.88;9.48;;;21.30;99.90;;;;;;6245252;23;20103;-79
2021/07/13 00:14:23;;;;;;;12.98;9.48;;;21.30;99.90;;;;;;6244481;23;20107;-78
2021/07/13 00:16:50;;;;;;;11.48;8.60;;;21.30;99.90;;;;;;6245009;22;20395;-79
2021/07/13 00:19:18;;;;;;;13.52;9.10;;;21.30;99.90;;;;;;6244672;23;20095;-80
2021/07/13 00:21:45;;;;;;;11.40;8.73;;;21.30;99.90;;;;;;6246142;23;20116;-80
2021/07/13 00:24:12;;;;;;;16.05;8.73;;;21.30;99.90;;;;;;6245858;23;20363;-80
2021/07/13 00:26:39;;;;;;;17.90;9.23;;;21.30;99.90;;;;;;6245246;22;20091;-79
2021/07/13 00:29:06;;;;;;;12.90;8.77;;;21.30;99.90;;;;;;6245039;23;20064;-78
2021/07/13 00:31:33;;;;;;;11.40;8.60;;;21.30;99.90;;;;;;6245266;23;20021;-79
2021/07/13 00:34:00;;;;;;;12.85;9.60;;;21.30;99.90;;;;;;6244879;23;20024;-79
2021/07/13 00:36:28;;;;;;;12.95;9.27;;;21.10;99.90;;;;;;6245131;22;20020;-77
2021/07/13 00:38:55;;;;;;;15.15;10.50;;;21.00;99.90;;;;;;6245152;23;20062;-78
2021/07/13 00:41:22;;;;;;;12.07;9.73;;;20.80;99.90;;;;;;6244770;23;20016;-78
2021/07/13 00:43:49;;;;;;;12.80;9.93;;;20.70;99.90;;;;;;6244491;23;20100;-77
2021/07/13 00:46:16;;;;;;;12.98;10.30;;;20.50;99.90;;;;;;6244870;22;20099;-80
2021/07/13 00:48:43;;;;;;;17.90;10.80;;;20.40;99.90;;;;;;6244432;23;20103;-77
2021/07/13 00:51:11;;;;;;;17.95;10.90;;;20.30;99.90;;;;;;6245146;23;20119;-77
2021/07/13 00:53:44;;;;;;;20.35;11.05;;;20.30;99.90;;;;;;6244740;23;20024;-77
2021/07/13 00:56:10;;;;;;;;;;;20.30;99.90;;;;;;6245132;22;20099;-78
2021/07/13 00:58:37;;;;;;;11.32;9.15;;;20.10;99.90;;;;;;6244885;23;20288;-78
2021/07/13 01:01:05;;;;;;;13.60;9.25;;;20.00;99.90;;;;;;6244447;23;20098;-77
2021/07/13 01:03:33;;;;;;;11.43;9.15;;;19.90;99.90;;;;;;6244770;23;20095;-78
2021/07/13 01:06:00;;;;;;;13.45;9.48;;;19.90;99.90;;;;;;6244736;22;20098;-78
2021/07/13 01:08:36;;;;;;;11.57;10.27;;;19.90;99.90;;;;;;6244946;23;20399;-77
2021/07/13 01:11:12;;;;;;;13.02;10.23;;;19.80;99.90;;;;;;6245167;23;20095;-78
2021/07/13 01:13:44;;;;;;;14.38;10.60;;;19.70;99.90;;;;;;6244755;23;20107;-76
2021/07/13 01:16:17;;;;;;;11.07;9.57;;;19.50;99.90;;;;;;6244612;22;20130;-78
2021/07/13 01:18:50;;;;;;;11.32;9.30;;;19.50;99.90;;;;;;6245239;23;20099;-78
2021/07/13 01:21:41;;;;;;;11.43;10.13;;;19.40;99.90;;;;;;6244140;23;20096;-77
2021/07/13 01:24:38;;;;;;;13.45;10.25;;;19.30;99.90;;;;;;6244483;23;20024;-78
2021/07/13 01:27:27;;;;;;;12.77;10.60;;;19.30;99.90;;;;;;6244022;22;20486;-77
2021/07/13 01:29:57;;;;;;;12.23;10.73;;;19.40;99.90;;;;;;6244289;23;20095;-77
2021/07/13 01:32:29;;;;;;;11.63;10.20;;;19.40;99.90;;;;;;6244340;23;20099;-77
2021/07/13 01:35:01;;;;;;;11.23;9.98;;;19.40;99.90;;;;;;6244329;23;20099;-77
2021/07/13 01:37:30;;;;;;;13.05;10.15;;;19.40;99.90;;;;;;6244525;23;20020;-75
2021/07/13 01:39:59;;;;;;;11.65;10.10;;;19.40;99.90;;;;;;6243939;23;20051;-77
2021/07/13 01:42:27;;;;;;;13.48;10.07;;;19.40;99.90;;;;;;6244664;23;20055;-76
2021/07/13 01:44:58;;;;;;;12.13;9.32;;;19.50;99.90;;;;;;6244020;23;20400;-78
2021/07/13 01:47:26;;;;;;;10.20;9.10;;;19.50;99.90;;;;;;6244398;22;20096;-77
2021/07/13 01:49:53;;;;;;;11.85;9.55;;;19.50;99.90;;;;;;6244406;23;20095;-76
2021/07/13 01:52:21;;;;;;;10.18;9.18;;;19.40;99.90;;;;;;6244451;23;20350;-76
2021/07/13 01:54:48;;;;;;;10.35;8.65;;;19.40;99.90;;;;;;6244175;23;20095;-77
2021/07/13 01:57:16;;;;;;;9.90;8.23;;;19.40;99.90;;;;;;6244047;22;20406;-77
2021/07/13 01:59:46;;;;;;;11.20;8.07;;;19.40;99.90;;;;;;6244059;23;20495;-76
2021/07/13 02:02:17;;;;;;;8.88;7.90;;;19.50;99.90;;;;;;6244166;23;20043;-78
2021/07/13 02:04:46;;;;;;;8.40;7.60;;;19.50;99.90;;;;;;6244081;23;20439;-78
2021/07/13 02:07:15;;;;;;;9.20;7.85;;;19.40;99.90;;;;;;6244319;22;20075;-77
2021/07/13 02:09:44;;;;;;;9.90;8.02;;;19.30;99.90;;;;;;6244559;23;20024;-77
2021/07/13 02:12:11;;;;;;;9.52;8.32;;;19.40;99.90;;;;;;6244608;23;20106;-78
2021/07/13 02:14:38;;;;;;;11.32;7.78;;;19.40;99.90;;;;;;6243858;23;20055;-78
2021/07/13 02:17:06;;;;;;;9.20;8.30;;;19.30;99.90;;;;;;6243738;22;20095;-77
2021/07/13 02:19:34;;;;;;;10.15;8.02;;;19.30;99.90;;;;;;6244597;23;20074;-78
2021/07/13 02:22:01;;;;;;;9.35;8.00;;;19.20;99.90;;;;;;6244221;23;20056;-78
2021/07/13 02:24:28;;;;;;;12.23;8.85;;;19.20;99.90;;;;;;6243707;23;20024;-76
2021/07/13 02:27:00;;;;;;;10.48;8.85;;;19.20;99.90;;;;;;6244041;22;20059;-77
2021/07/13 02:29:30;;;;;;;13.40;9.48;;;19.20;99.90;;;;;;6244299;23;20541;-77
2021/07/13 02:31:59;;;;;;;11.85;10.15;;;19.10;99.90;;;;;;6244148;23;20063;-76
2021/07/13 02:34:28;;;;;;;12.90;11.00;;;19.10;99.90;;;;;;6244017;23;20105;-76
2021/07/13 02:37:00;;;;;;;15.65;11.63;;;19.00;99.90;;;;;;6243920;22;20091;-76
2021/07/13 02:39:28;;;;;;;14.10;11.32;;;19.00;99.90;;;;;;6244219;23;20048;-76
2021/07/13 02:41:55;;;;;;;15.00;11.55;;;19.00;99.90;;;;;;6243840;23;20091;-76
2021/07/13 02:44:24;;;;;;;14.02;12.13;;;19.00;99.90;;;;;;6243314;23;20024;-77
2021/07/13 02:46:53;;;;;;;15.95;13.05;;;18.90;99.90;;;;;;6243962;22;20497;-76
2021/07/13 02:49:23;;;;;;;17.30;13.07;;;18.90;99.90;;;;;;6245767;23;20034;-76
2021/07/13 02:51:51;;;;;;;16.13;13.98;;;18.90;99.90;;;;;;6245992;23;20062;-75
2021/07/13 02:54:23;;;;;;;16.58;14.65;;;18.90;99.90;;;;;;6246463;23;20024;-77
2021/07/13 02:56:51;;;;;;;16.75;14.38;;;18.90;99.90;;;;;;6245406;22;20454;-76
2021/07/13 02:59:20;;;;;;;17.83;13.95;;;18.90;99.90;;;;;;6244159;23;20316;-77
2021/07/13 03:01:48;;;;;;;20.60;15.30;;;19.00;99.90;;;;;;6243677;23;20483;-77
2021/07/13 03:04:15;;;;;;;16.80;15.10;;;19.00;99.90;;;;;;6243549;23;20059;-78
2021/07/13 03:06:43;;;;;;;19.70;14.82;;;19.00;99.90;;;;;;6243903;22;20087;-77
2021/07/13 03:09:11;;;;;;;16.02;14.05;;;19.10;99.90;;;;;;6244043;23;20106;-77
2021/07/13 03:11:40;;;;;;;16.77;14.88;;;19.20;99.90;;;;;;6243569;23;20511;-77
2021/07/13 03:14:09;;;;;;;18.98;16.33;;;19.10;99.90;;;;;;6243485;23;20020;-77
2021/07/13 03:16:38;;;;;;;18.55;16.27;;;19.10;99.90;;;;;;6243209;22;20099;-76
2021/07/13 03:19:05;;;;;;;18.45;15.25;;;19.10;99.90;;;;;;6244749;23;20056;-76
2021/07/13 03:21:36;;;;;;;18.05;15.30;;;19.10;99.90;;;;;;6245886;23;20099;-76
2021/07/13 03:24:05;;;;;;;16.90;14.63;;;19.10;99.90;;;;;;6245838;23;20103;-77
2021/07/13 03:26:36;;;;;;;19.02;13.95;;;19.10;99.90;;;;;;6245801;22;20156;-77
2021/07/13 03:29:07;;;;;;;17.88;14.32;;;19.10;99.90;;;;;;6245932;23;20095;-77
2021/07/13 03:31:36;;;;;;;20.02;14.52;;;19.00;99.90;;;;;;6245841;23;20070;-77
2021/07/13 03:34:05;;;;;;;21.33;14.40;;;18.90;99.90;;;;;;6245545;23;20100;-77
2021/07/13 03:36:33;;;;;;;15.40;13.80;;;18.80;99.90;;;;;;6245510;22;20529;-78
2021/07/13 03:39:01;;;;;;;15.80;14.20;;;18.80;99.90;;;;;;6245841;23;20130;-76
2021/07/13 03:41:29;;;;;;;17.45;14.15;;;18.80;99.90;;;;;;6245681;23;20100;-78
2021/07/13 03:44:00;;;;;;;17.92;14.82;;;18.80;99.90;;;;;;6245476;23;20020;-77
2021/07/13 03:46:28;;;;;;;16.35;13.75;;;18.80;99.90;;;;;;6246073;22;20062;-76
2021/07/13 03:48:56;;;;;;;18.85;15.90;;;18.80;99.90;;;;;;6245512;23;20095;-77
2021/07/13 03:51:37;;;;;;;18.15;14.98;;;18.80;99.90;;;;;;6245833;23;20107;-77
2021/07/13 03:54:04;;;;;;;23.45;15.93;;;18.80;99.90;;;;;;6245511;23;20095;-77
2021/07/13 03:56:31;;;;;;;17.27;15.35;;;18.80;99.90;;;;;;6245616;22;20047;-77
2021/07/13 03:58:58;;;;;;;19.85;16.30;;;18.90;99.90;;;;;;6245838;23;20091;-77
2021/07/13 04:01:25;;;;;;;21.38;16.13;;;18.90;99.90;;;;;;6245557;23;20055;-77
2021/07/13 04:03:53;;;;;;;19.83;17.50;;;18.90;99.90;;;;;;6245840;23;20115;-78
2021/07/13 04:06:20;;;;;;;20.38;16.25;;;18.90;99.90;;;;;;6245564;22;20095;-78
2021/07/13 04:08:47;;;;;;;21.92;17.65;;;19.00;99.90;;;;;;6245373;23;20099;-78
2021/07/13 04:11:14;;;;;;;19.85;17.08;;;18.80;99.90;;;;;;6245810;23;20052;-77
2021/07/13 04:13:40;;;;;;;23.52;18.15;;;18.90;99.90;;;;;;6245238;23;20099;-77
2021/07/13 04:16:09;;;;;;;22.35;19.10;;;18.90;99.90;;;;;;6245186;22;20012;-80
2021/07/13 04:18:36;;;;;;;21.95;18.88;;;19.00;99.90;;;;;;6237093;23;20113;-80
2021/07/13 04:21:04;;;;;;;23.67;19.83;;;19.00;99.90;;;;;;6236736;23;20017;-80
2021/07/13 04:23:31;;;;;;;24.83;20.15;;;19.00;99.90;;;;;;6236411;23;20012;-80
2021/07/13 04:25:57;;;;;;;27.33;20.48;;;19.00;99.90;;;;;;6238575;23;20020;-80
2021/07/13 04:28:26;;;;;;;26.80;20.98;;;19.00;99.90;;;;;;6239689;23;20024;-80
2021/07/13 04:30:53;;;;;;;25.52;22.17;;;19.00;99.90;;;;;;6240588;23;20023;-81
2021/07/13 04:33:20;;;;;;;30.42;22.90;;;19.10;99.90;;;;;;6243199;22;20020;-81
2021/07/13 04:35:47;;;;;;;30.02;24.23;;;19.00;99.90;;;;;;6243218;22;20013;-81
2021/07/13 04:38:15;;;;;;;32.80;23.95;;;19.00;99.90;;;;;;6242884;22;20016;-81
2021/07/13 04:40:42;;;;;;;29.85;24.60;;;19.00;99.90;;;;;;6243032;23;20040;-81
2021/07/13 04:43:09;;;;;;;30.30;25.17;;;19.10;99.90;;;;;;6242506;22;20111;-81
2021/07/13 04:45:36;;;;;;;31.30;25.00;;;19.10;99.90;;;;;;6228933;23;20087;-81
2021/07/13 04:48:03;;;;;;;37.35;26.58;;;19.10;99.90;;;;;;6226585;23;20044;-81
2021/07/13 04:50:30;;;;;;;34.17;26.88;;;19.00;99.90;;;;;;6225493;23;20024;-81
2021/07/13 04:52:56;;;;;;;37.22;27.73;;;19.00;99.90;;;;;;6225850;23;20059;-79
2021/07/13 04:55:25;;;;;;;32.97;26.67;;;19.00;99.90;;;;;;6225498;23;20021;-81
2021/07/13 04:57:52;;;;;;;33.00;26.33;;;19.00;99.90;;;;;;6224132;23;20020;-80
2021/07/13 05:00:19;;;;;;;36.03;27.55;;;19.00;99.90;;;;;;6222462;23;20052;-81
2021/07/13 05:02:46;;;;;;;35.97;27.90;;;19.00;99.90;;;;;;6221159;23;20103;-80
2021/07/13 05:05:14;;;;;;;39.08;29.05;;;19.00;99.90;;;;;;6221575;23;20080;-79
2021/07/13 05:07:41;;;;;;;44.15;29.73;;;19.00;99.90;;;;;;6222669;23;20016;-81
2021/07/13 05:10:10;;;;;;;38.65;30.27;;;19.00;99.90;;;;;;6223646;23;20438;-81
2021/07/13 05:12:38;;;;;;;42.17;30.27;;;19.00;99.90;;;;;;6223193;23;20451;-81
2021/07/13 05:15:07;;;;;;;39.30;30.15;;;19.10;99.90;;;;;;6222453;23;20025;-81
2021/07/13 05:17:38;;;;;;;38.63;30.25;;;19.10;99.90;;;;;;6223275;23;20062;-82
2021/07/13 05:20:06;;;;;;;36.60;27.95;;;19.10;99.90;;;;;;6225625;23;20040;-81
2021/07/13 05:22:35;;;;;;;34.05;26.70;;;19.10;99.90;;;;;;6225600;23;20027;-80
2021/07/13 05:25:03;;;;;;;34.15;27.88;;;19.10;99.90;;;;;;6226179;23;20435;-81
2021/07/13 05:27:32;;;;;;;39.58;29.67;;;19.10;99.90;;;;;;6225625;23;20048;-82
2021/07/13 05:30:00;;;;;;;34.22;27.98;;;19.20;99.90;;;;;;6224758;23;20025;-82
2021/07/13 05:32:28;;;;;;;36.00;27.95;;;19.20;99.90;;;;;;6224222;23;20020;-83
2021/07/13 05:34:55;;;;;;;38.42;28.48;;;19.20;99.90;;;;;;6226464;23;20032;-83
2021/07/13 05:37:22;;;;;;;36.13;28.17;;;19.20;99.90;;;;;;6227135;23;20024;-82
2021/07/13 05:39:49;;;;;;;32.88;27.27;;;19.20;99.90;;;;;;6227333;23;20048;-83
2021/07/13 05:42:17;;;;;;;38.00;28.27;;;19.20;99.90;;;;;;6227175;23;20416;-80
2021/07/13 05:44:44;;;;;;;34.60;27.60;;;19.20;99.90;;;;;;6225555;23;20036;-82
2021/07/13 05:47:12;;;;;;;35.53;26.65;;;19.20;99.90;;;;;;6228423;23;20032;-80
2021/07/13 05:49:40;;;;;;;36.80;27.30;;;19.20;99.90;;;;;;6226255;23;20408;-83
2021/07/13 05:52:07;;;;;;;36.85;28.52;;;19.10;99.90;;;;;;6229308;23;20028;-83
2021/07/13 05:54:34;;;;;;;35.40;27.92;;;19.10;99.90;;;;;;6228739;23;20024;-85
2021/07/13 05:57:01;;;;;;;39.08;29.42;;;19.20;99.90;;;;;;6226911;23;20025;-84
2021/07/13 05:59:28;;;;;;;38.80;29.33;;;19.20;99.90;;;;;;6232537;23;20036;-83
2021/07/13 06:01:55;;;;;;;35.83;28.60;;;19.20;99.90;;;;;;6237868;23;20021;-82
2021/07/13 06:04:23;;;;;;;35.60;27.38;;;19.20;99.90;;;;;;6237065;23;20032;-83
2021/07/13 06:06:50;;;;;;;38.67;27.02;;;19.20;99.90;;;;;;6237215;23;20024;-82
2021/07/13 06:09:17;;;;;;;40.28;28.13;;;19.20;99.90;;;;;;6237049;23;20513;-83
2021/07/13 06:11:44;;;;;;;41.65;28.42;;;19.20;99.90;;;;;;6237537;23;20032;-81
2021/07/13 06:14:15;;;;;;;41.65;28.13;;;19.30;99.90;;;;;;6238502;23;20044;-82
2021/07/13 06:16:44;;;;;;;37.40;27.48;;;19.30;99.90;;;;;;6238259;23;20031;-82
2021/07/13 06:19:11;;;;;;;39.20;27.70;;;19.30;99.90;;;;;;6238450;23;20075;-82
2021/07/13 06:21:39;;;;;;;33.08;25.35;;;19.20;99.90;;;;;;6238190;23;20027;-82
2021/07/13 06:24:07;;;;;;;33.55;25.10;;;19.20;99.90;;;;;;6238436;23;20029;-83
2021/07/13 06:26:33;;;;;;;32.75;25.17;;;19.30;99.90;;;;;;6237270;23;20087;-81
2021/07/13 06:29:01;;;;;;;34.00;26.45;;;19.30;99.90;;;;;;6238559;23;20088;-82
2021/07/13 06:31:28;;;;;;;35.20;27.13;;;19.30;99.90;;;;;;6237258;23;20020;-83
2021/07/13 06:33:58;;;;;;;33.95;27.13;;;19.30;99.90;;;;;;6233259;23;20055;-81
2021/07/13 06:36:33;;;;;;;39.28;26.92;;;19.30;99.90;;;;;;6229913;23;20025;-83
2021/07/13 06:39:02;;;;;;;36.67;27.77;;;19.20;99.90;;;;;;6228074;23;20017;-82
2021/07/13 06:41:36;;;;;;;34.92;27.25;;;19.20;99.90;;;;;;6228937;23;20134;-83
2021/07/13 06:44:10;;;;;;;30.88;26.27;;;19.30;99.90;;;;;;6228119;23;20021;-83
2021/07/13 06:46:39;;;;;;;29.65;24.63;;;19.20;99.90;;;;;;6229018;23;20024;-83
2021/07/13 06:49:08;;;;;;;33.47;23.98;;;19.20;99.90;;;;;;6229375;23;20032;-83
2021/07/13 06:51:41;;;;;;;29.05;23.58;;;19.20;99.90;;;;;;6227521;23;20459;-83
2021/07/13 06:54:16;;;;;;;28.73;24.80;;;19.20;99.90;;;;;;6224428;23;20021;-84
2021/07/13 06:56:43;;;;;;;27.65;23.80;;;19.20;99.90;;;;;;6223415;23;20035;-84
2021/07/13 06:59:21;;;;;;;29.63;23.90;;;19.20;99.90;;;;;;6224308;23;20028;-83
2021/07/13 07:01:53;;;;;;;30.25;22.77;;;19.30;99.90;;;;;;6225229;23;20513;-85
2021/07/13 07:04:20;;;;;;;30.95;23.90;;;19.40;99.90;;;;;;6225448;23;20032;-84
2021/07/13 07:06:47;;;;;;;30.58;24.42;;;19.40;99.90;;;;;;6226253;23;20032;-85
2021/07/13 07:09:17;;;;;;;30.27;24.58;;;19.50;99.90;;;;;;6225803;23;20025;-84
2021/07/13 07:11:44;;;;;;;29.27;23.13;;;19.50;99.90;;;;;;6226634;23;20020;-85
2021/07/13 07:14:11;;;;;;;32.85;25.45;;;19.50;99.90;;;;;;6227069;23;20479;-84
2021/07/13 07:16:38;;;;;;;32.92;25.02;;;19.50;99.90;;;;;;6225236;23;20020;-85
2021/07/13 07:19:05;;;;;;;38.28;26.25;;;19.50;99.90;;;;;;6229386;23;20035;-81
2021/07/13 07:21:32;;;;;;;34.47;25.67;;;19.50;99.90;;;;;;6228317;23;20059;-85
2021/07/13 07:23:59;;;;;;;35.78;25.83;;;19.40;99.90;;;;;;6222965;23;20355;-85
2021/07/13 07:26:27;;;;;;;37.75;26.13;;;19.50;99.90;;;;;;6222324;23;20055;-84
2021/07/13 07:28:54;;;;;;;32.13;26.45;;;19.50;99.90;;;;;;6221159;23;20025;-86
2021/07/13 07:31:21;;;;;;;29.73;25.40;;;19.50;99.90;;;;;;6223309;23;20048;-85
2021/07/13 07:33:48;;;;;;;32.40;26.65;;;19.50;99.90;;;;;;6224769;23;20024;-86
2021/07/13 07:36:16;;;;;;;30.88;23.33;;;19.50;99.90;;;;;;6223833;23;20028;-84
2021/07/13 07:38:43;;;;;;;29.05;23.65;;;19.50;99.90;;;;;;6223763;23;20055;-85
2021/07/13 07:41:10;;;;;;;32.40;24.65;;;19.50;99.90;;;;;;6223247;23;20024;-86
2021/07/13 07:43:38;;;;;;;31.27;24.30;;;19.40;99.90;;;;;;6223013;23;20048;-85
2021/07/13 07:46:07;;;;;;;34.08;25.20;;;19.50;99.90;;;;;;6221671;23;20025;-84
2021/07/13 07:48:34;;;;;;;30.35;24.80;;;19.40;99.90;;;;;;6223008;23;20031;-83
2021/07/13 07:51:02;;;;;;;30.20;23.85;;;19.40;99.90;;;;;;6223645;23;20356;-84
2021/07/13 07:53:29;;;;;;;30.10;22.85;;;19.40;99.90;;;;;;6225102;23;20052;-86
2021/07/13 07:55:56;;;;;;;28.25;23.33;;;19.40;99.90;;;;;;6223102;23;20459;-84
2021/07/13 08:01:22;;;;;;;23.92;20.58;;;19.30;99.90;;;;;;6230832;23;20343;-85
2021/07/13 08:03:48;;;;;;;25.83;20.88;;;19.20;99.90;;;;;;6233576;23;20051;-85
2021/07/13 08:06:15;;;;;;;24.58;21.00;;;19.20;99.90;;;;;;6227539;23;20032;-85
2021/07/13 08:08:42;;;;;;;24.38;20.33;;;19.20;99.90;;;;;;6226657;23;20025;-84
2021/07/13 08:11:10;;;;;;;23.05;19.58;;;19.20;99.90;;;;;;6226403;23;20361;-85
2021/07/13 08:13:37;;;;;;;27.05;20.38;;;19.20;99.90;;;;;;6225361;23;20016;-84
2021/07/13 08:16:05;;;;;;;25.48;19.77;;;19.20;99.90;;;;;;6226234;23;20021;-85
2021/07/13 08:18:33;;;;;;;23.15;19.90;;;19.20;99.90;;;;;;6227584;23;20063;-85
2021/07/13 08:21:00;;;;;;;22.92;19.05;;;19.20;99.90;;;;;;6227638;23;20024;-84
2021/07/13 08:23:27;;;;;;;22.88;18.77;;;19.20;99.90;;;;;;6223620;23;20017;-83
2021/07/13 08:25:54;;;;;;;20.77;17.70;;;19.10;99.90;;;;;;6223336;23;20071;-86
2021/07/13 08:28:21;;;;;;;20.67;18.35;;;19.20;99.90;;;;;;6223259;23;20024;-84
2021/07/13 08:30:48;;;;;;;22.25;19.25;;;19.10;99.90;;;;;;6222639;23;20059;-85
2021/07/13 08:33:15;;;;;;;24.48;20.70;;;19.10;99.90;;;;;;6222924;23;20044;-83
2021/07/13 08:35:43;;;;;;;21.27;18.98;;;19.10;99.90;;;;;;6223534;23;20100;-82
2021/07/13 08:38:10;;;;;;;25.80;21.15;;;19.20;99.90;;;;;;6221687;23;20060;-82
2021/07/13 08:40:38;;;;;;;25.20;20.00;;;19.20;99.90;;;;;;6221513;23;20048;-83
2021/07/13 08:43:07;;;;;;;26.27;20.27;;;19.30;99.90;;;;;;6221445;23;20095;-82
2021/07/13 08:45:36;;;;;;;25.90;21.85;;;19.30;99.90;;;;;;6222157;23;20055;-83
2021/07/13 08:48:04;;;;;;;23.65;20.73;;;19.30;99.90;;;;;;6223284;23;20402;-82
2021/07/13 08:50:32;;;;;;;26.60;21.13;;;19.40;99.90;;;;;;6223169;23;20072;-83
2021/07/13 08:53:00;;;;;;;23.88;21.20;;;19.50;99.90;;;;;;6222318;23;20115;-82
2021/07/13 08:55:27;;;;;;;27.45;23.08;;;19.50;99.90;;;;;;6226975;23;20036;-83
2021/07/13 08:57:54;;;;;;;29.80;22.73;;;19.60;99.90;;;;;;6236769;23;20464;-83
2021/07/13 09:00:21;;;;;;;25.15;22.33;;;19.60;99.90;;;;;;6237889;23;20063;-83
2021/07/13 09:03:08;;;;;;;25.85;23.05;;;19.70;99.90;;;;;;6235426;23;20031;-83
2021/07/13 09:05:48;;;;;;;26.15;22.15;;;19.80;99.90;;;;;;6224281;23;20024;-84
2021/07/13 09:08:20;;;;;;;25.83;22.48;;;19.90;99.90;;;;;;6223872;23;20074;-85
2021/07/13 09:11:17;;;;;;;28.80;22.00;;;19.90;99.90;;;;;;6223306;23;20036;-85
2021/07/13 09:13:46;;;;;;;30.83;23.60;;;19.90;99.90;;;;;;6154700;23;20259;-86
2021/07/13 09:16:15;;;;;;;27.75;23.75;;;20.00;99.90;;;;;;6222230;23;20021;-85
2021/07/13 09:18:44;;;;;;;26.52;23.65;;;20.10;99.90;;;;;;6223015;23;20051;-86
2021/07/13 09:21:23;;;;;;;27.67;24.70;;;20.10;99.90;;;;;;6222549;23;20021;-86
2021/07/13 09:24:08;;;;;;;32.60;24.95;;;20.10;99.90;;;;;;6222351;23;20020;-86
2021/07/13 09:26:47;;;;;;;30.38;26.38;;;20.20;99.90;;;;;;6222724;23;20355;-86
2021/07/13 09:29:33;;;;;;;30.38;25.80;;;20.20;99.90;;;;;;6223255;23;20051;-86
2021/07/13 09:32:29;;;;;;;31.67;25.83;;;20.20;99.90;;;;;;6222959;23;20024;-86
2021/07/13 09:34:58;;;;;;;29.02;25.88;;;20.20;99.90;;;;;;6224179;23;20095;-85
2021/07/13 09:37:29;;;;;;;34.63;25.80;;;20.30;99.90;;;;;;6225845;23;20032;-85
2021/07/13 09:40:07;;;;;;;31.42;25.83;;;20.50;99.90;;;;;;6224643;23;20055;-84
2021/07/13 09:42:36;;;;;;;30.25;26.63;;;20.60;99.90;;;;;;6225861;23;20016;-87
2021/07/13 09:45:25;;;;;;;35.30;28.52;;;20.70;99.90;;;;;;6224885;23;20025;-86
2021/07/13 09:47:53;;;;;;;34.65;28.98;;;20.70;99.90;;;;;;6208387;23;20076;-86
2021/07/13 09:50:35;;;;;;;37.85;29.13;;;20.60;99.90;;;;;;6225413;23;20068;-86
2021/07/13 09:53:06;;;;;;;36.17;28.95;;;20.80;99.90;;;;;;6221932;23;20020;-86
2021/07/13 09:56:04;;;;;;;41.67;31.42;;;20.90;99.90;;;;;;6225086;23;20084;-86
2021/07/13 09:58:31;;;;;;;39.08;32.83;;;20.80;99.90;;;;;;6215313;23;20025;-85
2021/07/13 10:00:59;;;;;;;38.55;32.20;;;20.70;99.90;;;;;;6224511;23;20024;-86
2021/07/13 10:03:27;;;;;;;39.63;33.58;;;20.80;99.90;;;;;;6223984;23;20020;-85
2021/07/13 10:06:06;;;;;;;40.83;33.38;;;20.80;99.90;;;;;;6222146;23;20021;-86
2021/07/13 10:08:36;;;;;;;41.50;34.13;;;21.00;99.90;;;;;;6220525;23;20382;-85
2021/07/13 10:11:04;;;;;;;43.35;35.70;;;21.00;99.90;;;;;;6223959;23;20021;-86
2021/07/13 10:13:34;;;;;;;39.75;35.35;;;21.10;99.90;;;;;;6225893;23;20047;-85
2021/07/13 10:16:02;;;;;;;42.05;36.53;;;21.20;99.90;;;;;;6223398;23;20046;-85
2021/07/13 10:18:29;;;;;;;43.05;37.20;;;21.20;99.90;;;;;;6220710;22;20265;-78
2021/07/13 10:20:57;;;;;;;41.95;37.00;;;21.30;99.90;;;;;;6210064;23;20521;-77
2021/07/13 10:23:25;;;;;;;47.42;39.03;;;21.30;99.90;;;;;;6212455;23;20016;-77
2021/07/13 10:25:54;;;;;;;43.88;38.28;;;21.40;99.90;;;;;;6212389;23;20052;-77
2021/07/13 10:28:32;;;;;;;45.40;36.45;;;21.50;99.90;;;;;;6211630;23;20027;-76
2021/07/13 10:30:58;;;;;;;44.05;35.72;;;21.70;99.90;;;;;;6213299;23;20387;-77
2021/07/13 10:33:30;;;;;;;40.25;35.08;;;22.10;99.90;;;;;;6212604;23;20091;-77
2021/07/13 10:36:28;;;;;;;40.92;36.00;;;22.30;99.90;;;;;;6212480;23;20060;-78
2021/07/13 10:39:25;;;;;;;46.08;38.05;;;22.60;99.90;;;;;;6213039;23;20095;-77
2021/07/13 10:41:52;;;;;;;43.13;38.42;;;22.50;99.90;;;;;;6213656;23;20027;-77
2021/07/13 10:44:45;;;;;;;43.05;38.35;;;22.30;99.90;;;;;;6212875;23;20099;-77
2021/07/13 10:47:31;;;;;;;46.17;38.90;;;22.30;99.90;;;;;;6211240;23;20051;-77
2021/07/13 10:50:32;;;;;;;47.33;40.42;;;22.20;99.90;;;;;;6212747;23;20082;-79
2021/07/13 10:53:01;;;;;;;43.03;36.50;;;22.20;99.90;;;;;;6212154;23;20023;-79
2021/07/13 10:55:51;;;;;;;31.30;27.67;;;22.10;99.90;;;;;;6211245;23;20479;-76
2021/07/13 10:58:50;;;;;;;29.83;26.60;;;22.00;99.90;;;;;;6212424;23;20403;-79
2021/07/13 11:01:34;;;;;;;29.58;26.48;;;21.80;99.90;;;;;;6210562;23;20082;-79
2021/07/13 11:04:15;;;;;;;32.13;27.63;;;21.80;99.90;;;;;;6212669;23;20032;-79
2021/07/13 11:06:57;;;;;;;32.58;29.08;;;21.90;99.90;;;;;;6213441;23;20067;-79
2021/07/13 11:09:35;;;;;;;38.13;32.20;;;21.80;99.90;;;;;;6212272;23;20100;-79
2021/07/13 11:12:05;;;;;;;33.92;30.33;;;21.90;99.90;;;;;;6214195;23;20104;-79
2021/07/13 11:14:32;;;;;;;37.38;31.33;;;22.00;99.90;;;;;;6213092;23;20397;-78
2021/07/13 11:17:00;;;;;;;37.53;32.75;;;22.10;99.90;;;;;;6212838;23;20025;-77
2021/07/13 11:19:32;;;;;;;39.70;33.83;;;22.30;99.90;;;;;;6209471;23;20032;-78
2021/07/13 11:21:59;;;;;;;35.90;31.85;;;22.30;99.90;;;;;;6211036;23;20031;-78
2021/07/13 11:24:26;;;;;;;36.90;32.10;;;22.10;99.90;;;;;;6212026;23;20460;-79
2021/07/13 11:26:56;;;;;;;34.00;30.00;;;22.10;99.90;;;;;;6211871;23;20020;-78
2021/07/13 11:29:24;;;;;;;32.45;29.05;;;22.20;99.90;;;;;;6211781;23;20052;-79
2021/07/13 11:31:53;;;;;;;33.17;29.63;;;22.30;99.90;;;;;;6213334;23;20025;-77
2021/07/13 11:34:23;;;;;;;31.67;28.08;;;22.30;99.90;;;;;;6211530;23;20491;-80
2021/07/13 11:36:51;;;;;;;37.50;33.60;;;22.20;99.90;;;;;;6211316;23;20420;-77
2021/07/13 11:39:24;;;;;;;37.60;32.85;;;22.40;99.90;;;;;;6217593;23;20400;-79
2021/07/13 11:41:53;;;;;;;34.58;30.92;;;22.60;99.90;;;;;;6220144;23;20110;-81
2021/07/13 11:44:21;;;;;;;35.60;32.00;;;22.70;99.90;;;;;;6218885;23;20020;-80
2021/07/13 11:46:50;;;;;;;36.45;32.20;;;22.60;99.90;;;;;;6217157;23;20028;-79
2021/07/13 11:49:18;;;;;;;36.25;32.40;;;22.50;99.90;;;;;;6216576;23;20055;-78
2021/07/13 11:51:55;;;;;;;37.17;33.25;;;22.50;99.90;;;;;;6215221;23;20351;-78
2021/07/13 11:54:24;;;;;;;36.40;32.38;;;22.40;99.90;;;;;;6215182;23;20091;-79
2021/07/13 11:56:53;;;;;;;36.22;32.42;;;22.40;99.90;;;;;;6218132;23;20518;-78
2021/07/13 11:59:22;;;;;;;35.85;32.00;;;22.60;99.90;;;;;;6218064;23;20318;-81
2021/07/13 12:01:53;;;;;;;34.97;31.35;;;22.50;99.90;;;;;;6218476;23;20073;-79
2021/07/13 12:04:21;;;;;;;35.33;31.58;;;22.60;99.90;;;;;;6215214;23;20020;-79
2021/07/13 12:06:52;;;;;;;36.50;32.47;;;22.50;99.90;;;;;;6219225;23;20031;-80
2021/07/13 12:09:27;;;;;;;33.13;29.55;;;22.30;99.90;;;;;;6216780;23;20025;-78
2021/07/13 12:11:54;;;;;;;31.98;28.73;;;22.30;99.90;;;;;;6214632;23;20024;-78
2021/07/13 12:14:23;;;;;;;30.42;26.63;;;22.30;99.90;;;;;;6214578;23;20104;-80
2021/07/13 12:16:50;;;;;;;29.50;26.40;;;22.40;99.90;;;;;;6215636;23;20024;-77
2021/07/13 12:19:18;;;;;;;30.55;27.35;;;22.50;99.90;;;;;;6215197;23;20425;-77
2021/07/13 12:21:48;;;;;;;42.15;35.88;;;22.50;99.90;;;;;;6217185;23;20025;-78
2021/07/13 12:24:17;;;;;;;43.50;37.55;;;22.60;99.90;;;;;;6216582;23;20104;-78
2021/07/13 12:26:49;;;;;;;42.22;37.83;;;22.70;99.90;;;;;;6216073;23;20020;-77
2021/07/13 12:29:17;;;;;;;44.88;40.13;;;22.80;99.90;;;;;;6215608;23;20048;-78
2021/07/13 12:31:58;;;;;;;41.47;36.97;;;22.70;99.90;;;;;;6216017;23;20082;-77
2021/07/13 12:34:28;;;;;;;44.53;39.72;;;22.70;99.90;;;;;;6217654;23;20052;-77
2021/07/13 12:37:07;;;;;;;46.63;40.08;;;22.70;99.90;;;;;;6217383;23;20031;-78
2021/07/13 12:39:34;;;;;;;43.50;38.83;;;22.70;99.90;;;;;;6217289;23;20059;-76
2021/07/13 12:42:05;;;;;;;43.17;38.42;;;22.70;99.90;;;;;;6217588;23;20430;-78
2021/07/13 12:44:37;;;;;;;40.88;36.47;;;22.80;99.90;;;;;;6219578;23;20095;-79
2021/07/13 12:47:29;;;;;;;42.60;37.97;;;22.80;99.90;;;;;;6218713;23;20056;-78